Time;durP1;ratioP1;P1;durP2;ratioP2;P2;SDS_P1;SDS_P2;PMS_P1;PMS_P2;Temp;Humidity;BMP_temperature;BMP_pressure;BME280_temperature;BME280_humidity;BME280_pressure;Samples;Min_cycle;Max_cycle;Signal;HPM_P1;HPM_P2
2021/12/24 00:01:15;;;;;;;19.85;16.60;;;;;;;18.38;41.00;101376.72;5033455;28;20041;-76
2021/12/24 00:03:43;;;;;;;19.33;16.42;;;;;;;18.37;41.21;101365.16;5034544;28;20049;-77
2021/12/24 00:06:12;;;;;;;19.48;16.20;;;;;;;18.37;41.24;101362.47;5033056;28;20037;-77
2021/12/24 00:08:40;;;;;;;17.63;15.45;;;;;;;18.37;41.08;101361.63;5034213;28;20050;-77
2021/12/24 00:11:08;;;;;;;17.60;15.70;;;;;;;18.38;41.10;101374.03;5016792;28;20057;-76
2021/12/24 00:13:41;;;;;;;17.70;15.80;;;;;;;18.38;41.02;101369.53;5023663;28;20049;-77
2021/12/24 00:16:19;;;;;;;17.70;15.13;;;;;;;18.38;40.95;101364.16;4996334;28;20049;-77
2021/12/24 00:35:42;;;;;;;17.38;15.65;;;;;;;18.41;40.65;101357.75;5026997;28;20064;-77
2021/12/24 00:38:10;;;;;;;18.63;15.02;;;;;;;18.41;40.58;101353.22;5011471;28;20054;-77
2021/12/24 00:40:43;;;;;;;17.65;15.02;;;;;;;18.41;40.41;101342.50;5011058;28;20049;-76
2021/12/24 00:43:14;;;;;;;19.77;15.18;;;;;;;18.41;40.46;101337.16;4991837;28;20425;-75
2021/12/24 00:45:44;;;;;;;18.88;16.13;;;;;;;18.42;40.62;101344.22;4991209;28;20533;-76
2021/12/24 00:48:15;;;;;;;16.85;15.00;;;;;;;18.44;40.27;101339.59;4991620;28;20058;-76
2021/12/24 00:51:07;;;;;;;15.88;14.18;;;;;;;18.46;40.22;101339.47;4991518;28;20050;-77
2021/12/24 00:56:03;;;;;;;17.15;15.05;;;;;;;18.48;40.06;101332.19;5018682;28;20042;-77
2021/12/24 00:58:31;;;;;;;17.02;14.85;;;;;;;18.48;40.05;101338.41;5013291;28;20053;-77
2021/12/24 01:00:59;;;;;;;15.85;14.25;;;;;;;18.50;39.92;101340.97;5032456;28;20042;-77
2021/12/24 01:03:27;;;;;;;15.85;14.20;;;;;;;18.50;39.69;101330.25;5014674;28;20390;-77
2021/12/24 01:05:54;;;;;;;18.02;13.63;;;;;;;18.52;39.69;101322.94;5014777;28;20053;-77
2021/12/24 01:08:22;;;;;;;17.15;15.27;;;;;;;18.53;39.55;101330.88;5027017;28;20058;-77
2021/12/24 01:10:56;;;;;;;18.40;14.80;;;;;;;18.54;39.67;101331.72;5033019;28;20053;-77
2021/12/24 01:13:27;;;;;;;16.02;14.38;;;;;;;18.55;39.66;101328.06;5033159;28;20400;-76
2021/12/24 01:16:01;;;;;;;16.05;14.45;;;;;;;18.56;39.50;101335.16;5016199;28;20101;-76
2021/12/24 01:26:14;;;;;;;16.63;14.18;;;;;;;18.56;39.61;101329.81;5015725;28;20401;-76
2021/12/24 01:29:03;;;;;;;15.88;13.63;;;;;;;18.56;39.62;101334.31;5015089;28;20068;-76
2021/12/24 01:40:07;;;;;;;16.33;13.40;;;;;;;18.54;39.70;101321.84;5031261;28;20412;-76
2021/12/24 01:43:09;;;;;;;16.45;13.25;;;;;;;18.54;39.51;101332.56;5018698;28;20456;-76
2021/12/24 01:45:32;;;;;;;14.85;13.23;;;;;;;18.54;39.44;101321.00;5013048;28;20052;-76
2021/12/24 01:48:07;;;;;;;14.48;12.98;;;;;;;18.53;39.61;101325.50;4998443;28;20493;-76
2021/12/24 01:50:37;;;;;;;16.40;13.60;;;;;;;18.54;39.73;101319.16;5014714;28;20527;-77
2021/12/24 01:53:07;;;;;;;15.52;12.35;;;;;;;18.53;39.82;101321.97;5014645;28;20060;-76
2021/12/24 01:55:38;;;;;;;15.40;12.93;;;;;;;18.54;39.88;101326.38;5031179;28;20041;-77
2021/12/24 01:58:05;;;;;;;14.85;12.82;;;;;;;18.54;39.72;101318.31;5014084;28;20057;-76
2021/12/24 02:00:42;;;;;;;14.27;12.60;;;;;;;18.53;39.79;101314.78;5014412;28;20060;-76
2021/12/24 02:03:11;;;;;;;14.45;13.05;;;;;;;18.54;39.76;101308.44;5014579;28;20056;-76
2021/12/24 02:05:40;;;;;;;13.50;12.10;;;;;;;18.53;39.66;101313.94;5013942;28;20054;-77
2021/12/24 02:08:10;;;;;;;16.05;13.40;;;;;;;18.53;39.63;101297.84;5014921;28;20045;-77
2021/12/24 02:10:38;;;;;;;14.20;12.23;;;;;;;18.54;39.73;101296.88;5033035;28;20042;-77
2021/12/24 02:13:06;;;;;;;14.93;13.10;;;;;;;18.53;39.87;101287.13;5015259;28;20420;-76
2021/12/24 02:29:30;;;;;;;13.93;12.40;;;;;;;18.57;39.83;101264.47;5018224;28;20056;-78
2021/12/24 02:31:57;;;;;;;13.70;12.15;;;;;;;18.57;40.01;101251.06;5017506;28;20057;-76
2021/12/24 02:34:25;;;;;;;14.05;11.73;;;;;;;18.57;39.83;101256.41;5017082;28;20084;-77
2021/12/24 02:36:52;;;;;;;13.98;11.90;;;;;;;18.57;39.94;101252.88;5033239;28;20045;-77
2021/12/24 02:39:20;;;;;;;14.45;12.73;;;;;;;18.56;39.87;101256.56;5035306;28;20385;-77
2021/12/24 02:41:47;;;;;;;13.13;11.82;;;;;;;18.55;40.07;101242.25;5027640;28;20061;-77
2021/12/24 02:44:15;;;;;;;13.27;11.93;;;;;;;18.55;40.05;101247.63;5035533;28;20049;-77
2021/12/24 02:47:07;;;;;;;13.40;12.07;;;;;;;18.54;39.93;101240.56;5035846;28;20036;-77
2021/12/24 02:55:10;;;;;;;14.30;12.13;;;;;;;18.53;40.12;101234.34;5035718;28;20056;-76
2021/12/24 02:57:39;;;;;;;13.02;11.63;;;;;;;18.53;40.11;101230.81;5035126;28;20492;-76
2021/12/24 03:00:15;;;;;;;13.48;12.07;;;;;;;18.53;40.11;101236.19;5016985;28;20060;-77
2021/12/24 03:02:44;;;;;;;12.65;11.25;;;;;;;18.52;40.11;101221.06;5017763;28;20049;-77
2021/12/24 03:05:14;;;;;;;14.48;12.63;;;;;;;18.53;40.19;101222.78;5017389;28;20508;-77
2021/12/24 03:07:42;;;;;;;13.95;11.65;;;;;;;18.52;40.07;101204.97;5016449;28;19928;-77
2021/12/24 03:10:17;;;;;;;15.87;12.33;;;;;;;18.52;40.09;101208.50;5035475;28;20377;-78
2021/12/24 03:12:47;;;;;;;15.27;12.95;;;;;;;18.52;39.99;101207.66;5017095;28;20310;-78
2021/12/24 03:15:16;;;;;;;13.88;11.02;;;;;;;18.52;40.01;101205.84;5035173;28;20045;-77
2021/12/24 03:17:49;;;;;;;13.23;11.82;;;;;;;18.51;40.10;101204.13;5035022;28;20072;-77
2021/12/24 03:20:18;;;;;;;15.90;13.23;;;;;;;18.51;40.07;101190.72;5017014;28;20046;-77
2021/12/24 03:23:04;;;;;;;13.85;12.05;;;;;;;18.52;40.08;101196.94;5016614;28;20072;-77
2021/12/24 03:25:33;;;;;;;14.60;11.98;;;;;;;18.51;40.00;101203.25;5015843;28;20064;-77
2021/12/24 03:28:00;;;;;;;14.30;12.35;;;;;;;18.50;40.10;101191.69;5033435;28;20049;-77
2021/12/24 03:30:28;;;;;;;15.02;12.20;;;;;;;18.51;39.89;101195.22;5035020;28;20052;-77
2021/12/24 03:32:56;;;;;;;15.77;12.77;;;;;;;18.51;40.11;101203.25;5016152;28;20053;-77
2021/12/24 03:35:23;;;;;;;14.20;12.70;;;;;;;18.51;39.95;101187.16;5016903;28;20512;-78
2021/12/24 03:37:51;;;;;;;13.73;12.23;;;;;;;18.51;39.98;101187.16;5027099;28;20045;-78
2021/12/24 03:40:19;;;;;;;17.23;13.07;;;;;;;18.51;40.00;101184.47;5034332;28;20045;-77
2021/12/24 03:42:46;;;;;;;14.15;12.25;;;;;;;18.51;39.93;101193.41;5034958;28;20065;-78
2021/12/24 03:45:29;;;;;;;14.80;12.57;;;;;;;18.51;39.85;101198.78;5049592;28;20053;-77
2021/12/24 03:48:01;;;;;;;13.68;12.23;;;;;;;18.52;40.10;101199.63;5016124;28;20049;-77
2021/12/24 03:50:47;;;;;;;14.15;12.40;;;;;;;18.51;39.88;101196.09;5016882;28;20049;-77
2021/12/24 03:56:01;;;;;;;14.50;12.32;;;;;;;18.51;40.09;101204.13;5016448;28;20057;-77
2021/12/24 03:58:31;;;;;;;14.27;12.00;;;;;;;18.51;40.06;101195.22;5000522;28;20049;-77
2021/12/24 04:01:25;;;;;;;14.80;12.07;;;;;;;18.51;40.06;101197.88;4992776;28;20054;-77
2021/12/24 04:04:21;;;;;;;15.35;12.73;;;;;;;18.49;40.22;101200.69;4928096;29;20451;-76
2021/12/24 04:07:08;;;;;;;14.13;12.55;;;;;;;18.50;40.12;101201.56;4915902;29;20063;-76
2021/12/24 04:10:05;;;;;;;15.27;13.25;;;;;;;18.48;40.44;101196.31;4915387;29;20080;-76
2021/12/24 04:12:59;;;;;;;16.47;12.50;;;;;;;18.49;40.20;101205.22;4915591;29;20063;-76
2021/12/24 04:15:26;;;;;;;15.73;12.85;;;;;;;18.48;40.34;101195.47;4915640;29;20052;-76
2021/12/24 04:17:53;;;;;;;14.75;11.68;;;;;;;18.48;40.24;101198.16;4915242;29;20096;-76
2021/12/24 04:25:53;;;;;;;14.75;12.48;;;;;;;18.47;40.40;101202.66;4915490;29;20514;-76
2021/12/24 04:28:20;;;;;;;16.48;12.18;;;;;;;18.45;40.38;101188.50;4898878;29;20048;-76
2021/12/24 04:30:51;;;;;;;19.40;13.43;;;;;;;18.46;40.45;101189.34;4915100;29;20056;-77
2021/12/24 04:33:39;;;;;;;16.05;12.55;;;;;;;18.45;40.47;101176.94;4915773;29;20048;-77
2021/12/24 05:03:35;;;;;;;14.88;11.73;;;;;;;18.45;40.42;101161.69;5015551;28;20060;-78
2021/12/24 05:08:56;;;;;;;15.73;12.77;;;;;;;18.44;40.49;101151.09;5015306;28;20045;-77
2021/12/24 05:11:25;;;;;;;16.63;12.20;;;;;;;18.44;40.37;101169.88;5015409;28;20056;-77
2021/12/24 05:13:54;;;;;;;15.55;12.98;;;;;;;18.43;40.57;101170.81;5015737;28;20060;-77
2021/12/24 05:16:46;;;;;;;17.55;11.73;;;;;;;18.44;40.46;101173.41;5039601;28;20481;-77
2021/12/24 05:22:37;;;;;;;15.68;12.00;;;;;;;18.41;40.53;101165.59;5040280;28;20493;-76
2021/12/24 05:25:12;;;;;;;17.27;12.50;;;;;;;18.43;40.44;101157.41;5015143;28;20065;-76
2021/12/24 05:27:40;;;;;;;15.60;12.27;;;;;;;18.41;40.68;101148.66;5014715;28;20049;-77
2021/12/24 05:30:09;;;;;;;16.05;12.55;;;;;;;18.40;40.92;101152.31;5014796;28;20057;-77
2021/12/24 05:32:36;;;;;;;15.85;12.77;;;;;;;18.39;41.00;101151.47;5014457;28;20061;-77
2021/12/24 05:35:05;;;;;;;18.67;12.45;;;;;;;18.38;41.20;101141.69;5015362;28;20045;-78
2021/12/24 05:37:36;;;;;;;16.02;12.05;;;;;;;18.39;41.06;101147.91;5015967;28;20481;-78
2021/12/24 05:40:04;;;;;;;17.73;12.27;;;;;;;18.37;41.18;101139.97;5027151;28;20049;-77
2021/12/24 05:42:33;;;;;;;15.50;11.80;;;;;;;18.38;41.09;101139.00;5018514;28;20405;-78
2021/12/24 05:45:07;;;;;;;15.32;11.25;;;;;;;18.38;41.03;101130.13;5014894;28;20504;-78
2021/12/24 05:48:00;;;;;;;13.57;11.27;;;;;;;18.37;41.05;101134.63;5012116;28;20042;-77
2021/12/24 05:50:28;;;;;;;16.90;12.68;;;;;;;18.37;41.05;101131.09;5018518;28;20107;-77
2021/12/24 05:53:34;;;;;;;15.02;12.20;;;;;;;18.37;41.03;101121.22;4957061;28;20058;-77
2021/12/24 05:56:09;;;;;;;17.42;12.20;;;;;;;18.37;41.06;101118.53;4940158;28;20059;-77
2021/12/24 05:58:39;;;;;;;15.38;11.95;;;;;;;18.36;41.11;101122.19;4940031;28;20062;-77
2021/12/24 06:01:07;;;;;;;14.95;12.15;;;;;;;18.36;40.93;101122.19;4940938;28;20055;-77
2021/12/24 06:03:53;;;;;;;14.30;11.98;;;;;;;18.36;40.84;101116.00;4956369;29;20055;-77
2021/12/24 06:06:20;;;;;;;15.02;11.45;;;;;;;18.37;40.77;101123.06;4940220;29;20099;-76
2021/12/24 06:08:48;;;;;;;16.67;11.50;;;;;;;18.36;40.95;101118.69;4955782;29;20059;-77
2021/12/24 06:11:16;;;;;;;13.13;11.18;;;;;;;18.36;40.75;101113.31;4956164;29;20071;-78
2021/12/24 06:13:43;;;;;;;15.57;12.40;;;;;;;18.36;40.87;101116.00;4955759;29;20055;-77
2021/12/24 06:16:11;;;;;;;14.10;11.02;;;;;;;18.35;40.97;101112.47;4956086;29;20446;-77
2021/12/24 06:18:40;;;;;;;13.55;12.05;;;;;;;18.34;40.81;101108.06;4940457;28;20053;-77
2021/12/24 06:21:08;;;;;;;14.30;11.13;;;;;;;18.33;41.32;101103.66;4955835;29;20051;-78
2021/12/24 06:23:40;;;;;;;14.63;11.63;;;;;;;18.34;41.00;101093.81;4966618;28;20065;-78
2021/12/24 06:26:08;;;;;;;15.45;11.65;;;;;;;18.34;41.14;101091.13;5035981;28;20049;-78
2021/12/24 06:28:36;;;;;;;14.70;10.80;;;;;;;18.34;41.22;101091.13;5035695;28;20045;-78
2021/12/24 06:31:04;;;;;;;16.15;11.80;;;;;;;18.33;41.01;101089.41;5034045;28;20054;-77
2021/12/24 06:33:31;;;;;;;14.40;11.45;;;;;;;18.33;40.95;101087.59;5035920;28;20049;-78
2021/12/24 06:35:59;;;;;;;13.50;10.63;;;;;;;18.32;41.11;101096.59;5017965;28;20049;-77
2021/12/24 06:38:26;;;;;;;12.35;10.23;;;;;;;18.32;40.91;101098.44;5035360;28;20053;-76
2021/12/24 06:40:54;;;;;;;13.00;10.93;;;;;;;18.32;40.86;101101.97;5034341;28;20048;-77
2021/12/24 06:43:21;;;;;;;13.52;10.90;;;;;;;18.32;40.99;101095.75;5051072;28;20046;-77
2021/12/24 06:45:49;;;;;;;12.75;10.32;;;;;;;18.32;40.98;101099.28;5035583;28;20053;-76
2021/12/24 06:48:18;;;;;;;14.05;10.25;;;;;;;18.32;40.98;101106.47;5017500;28;20409;-77
2021/12/24 06:50:45;;;;;;;14.63;10.70;;;;;;;18.31;41.04;101100.28;5035721;28;20409;-76
2021/12/24 06:53:13;;;;;;;13.23;10.77;;;;;;;18.31;41.08;101097.59;5035374;28;20041;-76
2021/12/24 06:55:42;;;;;;;15.55;11.07;;;;;;;18.31;41.05;101110.09;5017690;28;20057;-76
2021/12/24 06:58:11;;;;;;;14.82;10.90;;;;;;;18.29;40.85;101111.09;5017752;28;20405;-76
2021/12/24 07:00:39;;;;;;;10.93;9.70;;;;;;;18.31;41.13;101104.75;5016185;28;20068;-76
2021/12/24 07:03:09;;;;;;;12.57;10.18;;;;;;;18.28;41.00;101096.00;5001399;28;20057;-77
2021/12/24 07:05:37;;;;;;;12.43;10.23;;;;;;;18.29;40.96;101108.41;5035841;28;20052;-76
2021/12/24 07:08:04;;;;;;;12.07;10.35;;;;;;;18.29;40.79;101121.81;5016739;28;20049;-76
2021/12/24 07:10:32;;;;;;;13.18;10.43;;;;;;;18.29;40.88;101124.50;5035155;28;20045;-75
2021/12/24 07:12:59;;;;;;;13.73;9.95;;;;;;;18.29;40.85;101127.16;5035283;28;20053;-76
2021/12/24 07:15:26;;;;;;;14.10;10.25;;;;;;;18.29;40.94;101127.16;5035599;28;20048;-76
2021/12/24 07:17:54;;;;;;;13.05;10.82;;;;;;;18.29;40.85;101121.81;5018073;28;20041;-75
2021/12/24 07:20:21;;;;;;;11.55;9.77;;;;;;;18.28;40.73;101130.81;5034780;28;20045;-76
2021/12/24 07:22:49;;;;;;;12.18;10.18;;;;;;;18.28;40.94;101127.31;5018002;28;20045;-76
2021/12/24 07:25:16;;;;;;;11.95;9.88;;;;;;;18.29;40.80;101129.00;5035170;28;20045;-76
2021/12/24 07:27:43;;;;;;;11.50;10.18;;;;;;;18.29;40.64;101116.44;5034751;28;20052;-77
2021/12/24 07:30:12;;;;;;;12.48;9.27;;;;;;;18.29;40.91;101116.44;5035083;28;20099;-76
2021/12/24 07:32:41;;;;;;;12.52;9.88;;;;;;;18.28;40.92;101106.72;5035109;28;20050;-76
2021/12/24 07:35:09;;;;;;;15.25;10.05;;;;;;;18.29;40.88;101105.72;5034406;28;20072;-75
2021/12/24 07:37:37;;;;;;;10.60;9.35;;;;;;;18.28;40.65;101114.75;5034297;28;20064;-75
2021/12/24 07:40:06;;;;;;;12.25;10.18;;;;;;;18.29;40.91;101126.31;5018218;28;20049;-75
2021/12/24 07:42:33;;;;;;;13.20;9.90;;;;;;;18.29;40.80;101124.50;5063937;28;20049;-75
2021/12/24 07:45:02;;;;;;;11.95;10.15;;;;;;;18.28;40.74;101122.78;5034604;28;20056;-76
2021/12/24 07:47:37;;;;;;;11.27;9.65;;;;;;;18.29;40.73;101110.25;5034315;28;20065;-75
2021/12/24 07:52:57;;;;;;;12.70;9.75;;;;;;;18.27;40.91;101113.06;5034224;28;20042;-75
2021/12/24 07:55:24;;;;;;;11.95;10.10;;;;;;;18.27;40.81;101101.44;5034294;28;20060;-76
2021/12/24 07:57:52;;;;;;;12.10;9.95;;;;;;;18.28;40.69;101101.34;5032793;28;20042;-76
2021/12/24 08:00:26;;;;;;;13.57;9.63;;;;;;;18.27;40.80;101102.34;5033960;28;20045;-77
2021/12/24 08:02:55;;;;;;;12.63;9.85;;;;;;;18.27;40.89;101115.72;5033977;28;20409;-76
2021/12/24 08:05:27;;;;;;;;;;;;;;;18.28;40.87;101113.91;5033486;28;20062;-77
2021/12/24 08:07:55;;;;;;;11.10;10.00;;;;;;;18.28;40.93;101098.66;5033704;28;19928;-76
2021/12/24 08:10:24;;;;;;;11.95;10.05;;;;;;;18.27;41.01;101088.94;5033639;28;20056;-76
2021/12/24 08:12:52;;;;;;;12.63;9.73;;;;;;;18.27;41.09;101093.41;5033993;28;20037;-76
2021/12/24 08:15:19;;;;;;;13.00;9.10;;;;;;;18.25;41.09;101096.22;5033746;28;20052;-75
2021/12/24 08:17:47;;;;;;;15.55;10.38;;;;;;;18.26;41.24;101110.47;5033778;28;20046;-76
2021/12/24 08:20:15;;;;;;;13.02;10.07;;;;;;;18.25;40.99;101100.72;5032420;28;20056;-75
2021/12/24 08:22:43;;;;;;;12.02;9.55;;;;;;;18.26;40.81;101103.28;5033328;28;20053;-75
2021/12/24 08:25:10;;;;;;;13.60;10.10;;;;;;;18.25;40.81;101101.56;5033731;28;20045;-76
2021/12/24 08:27:38;;;;;;;13.48;10.60;;;;;;;18.26;40.67;101097.91;5033438;28;20053;-75
2021/12/24 08:30:07;;;;;;;11.30;9.40;;;;;;;18.24;41.00;101078.44;5033500;28;20045;-78
2021/12/24 08:32:38;;;;;;;15.30;10.13;;;;;;;18.23;41.88;101081.22;5034004;28;20045;-75
2021/12/24 08:35:09;;;;;;;13.45;9.30;;;;;;;18.21;42.16;101077.81;5015971;28;20496;-75
2021/12/24 08:37:37;;;;;;;18.30;9.80;;;;;;;18.20;42.28;101076.97;5033173;28;20060;-75
2021/12/24 08:40:05;;;;;;;13.77;9.88;;;;;;;18.19;42.30;101083.31;5016355;28;20048;-75
2021/12/24 08:42:32;;;;;;;10.95;8.95;;;;;;;18.18;42.16;101073.53;5031781;28;20037;-75
2021/12/24 08:45:00;;;;;;;10.93;8.63;;;;;;;18.18;41.83;101070.84;5066054;28;20046;-75
2021/12/24 08:47:27;;;;;;;16.73;11.85;;;;;;;18.12;40.65;101063.31;5033544;28;20050;-76
2021/12/24 08:49:55;;;;;;;15.73;10.13;;;;;;;18.09;41.83;101063.53;5033063;28;20049;-75
2021/12/24 08:52:23;;;;;;;10.07;8.80;;;;;;;18.11;41.76;101074.13;5033078;28;20115;-75
2021/12/24 08:54:51;;;;;;;11.15;8.95;;;;;;;18.11;41.80;101072.31;5031513;28;20064;-76
2021/12/24 08:57:18;;;;;;;12.52;9.10;;;;;;;18.10;41.89;101067.91;5034309;28;20052;-76
2021/12/24 08:59:45;;;;;;;12.38;9.65;;;;;;;18.12;41.72;101076.72;5031960;28;20046;-76
2021/12/24 09:02:17;;;;;;;11.18;9.23;;;;;;;18.14;41.94;101066.72;5033321;28;20049;-74
2021/12/24 09:04:45;;;;;;;10.40;9.13;;;;;;;18.15;42.06;101067.56;5033242;28;20049;-75
2021/12/24 09:07:12;;;;;;;12.15;8.73;;;;;;;18.15;42.03;101076.47;5015299;28;20050;-76
2021/12/24 09:09:39;;;;;;;12.52;10.13;;;;;;;18.14;42.08;101063.19;5014658;28;20049;-75
2021/12/24 09:12:07;;;;;;;13.90;10.15;;;;;;;18.14;42.09;101058.66;5033214;28;20050;-75
2021/12/24 09:14:35;;;;;;;14.00;9.75;;;;;;;18.14;42.33;101056.00;5015314;28;20493;-75
2021/12/24 09:17:03;;;;;;;12.55;10.40;;;;;;;18.16;42.18;101056.75;5032757;28;20053;-76
2021/12/24 09:19:32;;;;;;;10.45;9.15;;;;;;;18.15;42.20;101044.31;5032937;28;20045;-76
2021/12/24 09:22:00;;;;;;;12.38;9.75;;;;;;;18.15;42.38;101047.00;5032253;28;20049;-75
2021/12/24 09:24:29;;;;;;;10.57;8.85;;;;;;;18.15;42.34;101033.59;5047874;28;20046;-76
2021/12/24 09:26:58;;;;;;;10.43;9.02;;;;;;;18.14;41.99;101034.56;5015135;28;20045;-75
2021/12/24 09:29:26;;;;;;;19.48;10.35;;;;;;;18.15;41.87;101038.97;5048631;28;20048;-75
2021/12/24 09:31:55;;;;;;;13.23;10.20;;;;;;;18.16;41.76;101026.41;5033049;28;20072;-75
2021/12/24 09:34:23;;;;;;;15.40;11.95;;;;;;;18.16;41.78;101032.63;5032983;28;20056;-75
2021/12/24 09:36:50;;;;;;;14.50;11.85;;;;;;;18.15;41.61;101019.31;5032675;28;20056;-76
2021/12/24 09:39:17;;;;;;;13.52;11.23;;;;;;;18.14;41.42;101023.84;5032801;28;20052;-76
2021/12/24 09:41:45;;;;;;;15.00;11.57;;;;;;;18.14;41.70;101028.34;5033241;28;20053;-75
2021/12/24 09:44:14;;;;;;;12.35;10.63;;;;;;;18.15;41.77;101030.03;5031815;28;20041;-75
2021/12/24 09:46:42;;;;;;;13.73;10.50;;;;;;;18.15;41.70;101027.38;5032703;28;20069;-76
2021/12/24 09:49:11;;;;;;;17.55;10.93;;;;;;;18.15;41.77;101014.84;5031733;28;20378;-76
2021/12/24 09:51:44;;;;;;;12.93;9.63;;;;;;;18.16;41.40;101011.19;4996630;28;20060;-76
2021/12/24 09:54:14;;;;;;;11.43;9.13;;;;;;;18.18;41.80;101003.03;5030833;28;20053;-76
2021/12/24 09:56:43;;;;;;;15.15;10.25;;;;;;;18.18;41.69;101003.03;5030886;28;20045;-75
2021/12/24 09:59:10;;;;;;;10.80;8.90;;;;;;;18.17;41.75;100986.09;5030885;28;20053;-74
2021/12/24 10:01:50;;;;;;;14.95;10.40;;;;;;;18.17;41.76;101002.16;5031177;28;20049;-74
2021/12/24 10:04:20;;;;;;;11.27;9.18;;;;;;;18.19;41.78;100991.31;5030791;28;20053;-79
2021/12/24 10:07:00;;;;;;;12.52;8.73;;;;;;;18.18;41.74;101003.88;5032522;28;20045;-76
2021/12/24 10:09:43;;;;;;;10.15;9.05;;;;;;;18.19;41.57;101002.91;5032687;28;20044;-75
2021/12/24 10:12:23;;;;;;;9.65;8.25;;;;;;;18.19;41.66;100999.34;5032229;28;20049;-75
2021/12/24 10:14:54;;;;;;;10.32;8.85;;;;;;;18.19;41.63;101002.03;5032422;28;20053;-75
2021/12/24 10:17:28;;;;;;;9.70;8.68;;;;;;;18.19;41.64;101002.91;5014530;28;20061;-75
2021/12/24 10:20:00;;;;;;;;;;;;;;;18.20;41.77;101001.09;5032635;28;20050;-75
2021/12/24 10:22:42;;;;;;;10.73;8.57;;;;;;;18.20;41.68;100983.19;5014679;28;19921;-75
2021/12/24 10:25:13;;;;;;;11.65;9.32;;;;;;;18.19;41.63;100984.16;5031958;28;20508;-77
2021/12/24 10:27:43;;;;;;;10.32;8.32;;;;;;;18.19;41.53;100989.53;5032652;28;20109;-77
2021/12/24 10:30:22;;;;;;;9.80;8.48;;;;;;;18.19;41.63;100992.19;5032484;28;20045;-77
2021/12/24 10:32:52;;;;;;;9.77;8.30;;;;;;;18.19;41.47;100986.84;5032227;28;20053;-77
2021/12/24 10:35:27;;;;;;;11.57;8.23;;;;;;;18.20;41.62;101001.09;5035038;28;20409;-77
2021/12/24 10:38:24;;;;;;;8.68;7.78;;;;;;;18.19;41.66;100991.31;5036316;28;20049;-77
2021/12/24 10:40:58;;;;;;;10.90;8.68;;;;;;;18.19;41.45;100996.69;5035774;28;20041;-77
2021/12/24 10:43:29;;;;;;;9.85;7.70;;;;;;;18.19;41.52;100994.88;5034708;28;20068;-77
2021/12/24 10:46:12;;;;;;;9.50;8.43;;;;;;;18.19;41.44;100981.47;5035152;28;20049;-77
2021/12/24 10:48:59;;;;;;;9.80;8.80;;;;;;;18.19;41.33;100972.56;5035559;28;20061;-76
2021/12/24 10:54:29;;;;;;;10.10;9.03;;;;;;;18.19;41.41;100975.25;4994137;28;20081;-77
2021/12/24 10:57:16;;;;;;;9.85;8.80;;;;;;;18.18;41.33;100985.13;4994351;28;20078;-76
2021/12/24 10:59:48;;;;;;;9.90;8.00;;;;;;;18.19;41.35;100976.13;4993832;28;20066;-77
2021/12/24 11:02:17;;;;;;;11.07;8.60;;;;;;;18.18;41.31;100984.25;4979974;28;20063;-76
2021/12/24 11:04:46;;;;;;;9.57;8.38;;;;;;;18.18;41.16;100987.78;4954900;29;20058;-76
2021/12/24 11:07:37;;;;;;;9.95;8.00;;;;;;;18.18;41.32;100966.34;4970884;28;20058;-77
2021/12/24 11:10:11;;;;;;;9.20;8.30;;;;;;;18.18;41.31;100966.34;4955072;29;20055;-77
2021/12/24 11:12:44;;;;;;;9.48;8.48;;;;;;;18.16;41.19;100970.16;4955185;29;20063;-76
2021/12/24 11:15:22;;;;;;;9.50;8.02;;;;;;;18.16;41.10;100952.25;4955819;29;20063;-77
2021/12/24 11:17:51;;;;;;;10.20;8.13;;;;;;;18.16;41.18;100965.63;4954798;29;20538;-77
2021/12/24 11:20:20;;;;;;;9.00;7.95;;;;;;;18.16;41.23;100967.47;4954523;29;20069;-76
2021/12/24 11:22:56;;;;;;;9.20;7.97;;;;;;;18.17;41.01;100974.53;4955183;29;20066;-76
2021/12/24 11:25:26;;;;;;;9.52;8.50;;;;;;;18.15;40.80;100976.47;4955208;29;20055;-77
2021/12/24 11:27:54;;;;;;;10.05;8.82;;;;;;;18.15;41.15;100958.59;4966754;28;20069;-77
2021/12/24 11:30:23;;;;;;;9.05;7.95;;;;;;;18.14;41.16;100953.31;5015167;28;20057;-76
2021/12/24 11:32:53;;;;;;;9.85;8.43;;;;;;;18.14;41.09;100964.88;5014737;28;20058;-76
2021/12/24 11:35:22;;;;;;;10.23;8.77;;;;;;;18.13;40.88;100949.78;5014936;28;20046;-76
2021/12/24 11:37:51;;;;;;;10.10;8.30;;;;;;;18.14;40.98;100943.47;5015076;28;20059;-76
2021/12/24 11:40:20;;;;;;;10.07;8.60;;;;;;;18.14;41.05;100950.66;4997358;28;20046;-76
2021/12/24 11:42:54;;;;;;;10.75;8.75;;;;;;;18.14;41.12;100956.84;5032849;28;20056;-77
2021/12/24 11:45:23;;;;;;;9.65;7.97;;;;;;;18.13;40.94;100949.78;5026985;28;20041;-76
2021/12/24 11:47:51;;;;;;;10.15;8.63;;;;;;;18.14;40.98;100959.53;5034329;28;20058;-76
2021/12/24 11:50:20;;;;;;;10.13;8.52;;;;;;;18.13;40.97;100962.34;5034383;28;20477;-77
2021/12/24 11:52:51;;;;;;;10.77;8.68;;;;;;;18.14;40.94;100950.66;5033259;28;20053;-76
2021/12/24 11:55:19;;;;;;;10.07;8.32;;;;;;;18.13;41.10;100951.63;5034437;28;20049;-77
2021/12/24 11:57:52;;;;;;;9.77;8.60;;;;;;;18.12;40.98;100950.78;5034320;28;20476;-77
2021/12/24 12:00:29;;;;;;;9.38;8.38;;;;;;;18.12;40.96;100940.06;5034456;28;20046;-77
2021/12/24 12:02:57;;;;;;;9.77;8.75;;;;;;;18.13;40.99;100948.94;5034156;28;20053;-77
2021/12/24 12:05:35;;;;;;;9.30;8.40;;;;;;;18.12;40.89;100934.69;5034193;28;20125;-77
2021/12/24 12:08:33;;;;;;;9.18;8.25;;;;;;;18.11;40.91;100934.81;5034444;28;20401;-77
2021/12/24 12:11:04;;;;;;;9.55;8.55;;;;;;;18.11;40.83;100930.31;5032627;28;20061;-77
2021/12/24 12:13:37;;;;;;;9.95;8.95;;;;;;;18.11;40.92;100924.97;5032677;28;20050;-77
2021/12/24 12:16:05;;;;;;;9.65;8.65;;;;;;;18.11;40.76;100908.91;5033948;28;20405;-77
2021/12/24 12:18:43;;;;;;;9.80;8.43;;;;;;;18.11;40.88;100930.31;5032804;28;20393;-77
2021/12/24 12:21:15;;;;;;;9.15;7.95;;;;;;;18.11;40.71;100919.59;5034264;28;20042;-77
2021/12/24 12:26:32;;;;;;;10.27;8.98;;;;;;;18.12;40.89;100910.59;5033932;28;20489;-75
2021/12/24 12:29:18;;;;;;;9.68;8.25;;;;;;;18.12;40.70;100915.94;5033888;28;20053;-77
2021/12/24 12:31:48;;;;;;;8.55;7.65;;;;;;;18.11;40.69;100914.25;5033658;28;20052;-77
2021/12/24 12:34:37;;;;;;;9.55;8.05;;;;;;;18.13;40.83;100919.47;5033620;28;20046;-76
2021/12/24 12:37:15;;;;;;;10.55;8.75;;;;;;;18.12;40.71;100910.59;5033850;28;20057;-76
2021/12/24 12:39:44;;;;;;;9.05;8.15;;;;;;;18.13;40.73;100914.97;5033976;28;20049;-77
2021/12/24 12:42:17;;;;;;;10.18;8.10;;;;;;;18.12;40.64;100899.88;5033340;28;20049;-77
2021/12/24 12:44:53;;;;;;;10.23;8.32;;;;;;;18.12;40.74;100886.47;5033221;28;20057;-77
2021/12/24 12:47:24;;;;;;;10.70;8.43;;;;;;;18.11;40.63;100890.13;5032269;28;20061;-74
2021/12/24 12:50:13;;;;;;;9.32;8.43;;;;;;;18.12;40.76;100883.78;5033310;28;20049;-75
2021/12/24 12:52:41;;;;;;;9.10;8.20;;;;;;;18.10;40.74;100877.69;5033437;28;20045;-75
2021/12/24 12:55:30;;;;;;;9.50;8.50;;;;;;;18.11;40.71;100874.06;5033565;28;20068;-76
2021/12/24 12:58:20;;;;;;;9.57;8.57;;;;;;;18.11;40.61;100866.03;5033706;28;20049;-76
2021/12/24 13:01:12;;;;;;;8.88;7.97;;;;;;;18.11;40.38;100862.47;5033132;28;20049;-76
2021/12/24 13:03:57;;;;;;;9.73;8.23;;;;;;;18.10;40.64;100853.59;5028553;28;20497;-76
2021/12/24 13:06:49;;;;;;;10.98;8.68;;;;;;;18.10;40.59;100856.25;5013534;28;20107;-76
2021/12/24 13:09:21;;;;;;;9.73;8.70;;;;;;;18.11;40.65;100858.00;5014066;28;20050;-76
2021/12/24 13:11:54;;;;;;;8.82;7.93;;;;;;;18.10;40.69;100856.25;4995724;28;20053;-77
2021/12/24 13:14:28;;;;;;;9.48;8.43;;;;;;;18.10;40.66;100847.38;5013195;28;20405;-76
2021/12/24 13:22:36;;;;;;;12.07;8.60;;;;;;;18.09;40.67;100827.78;5013608;28;20076;-77
2021/12/24 13:25:09;;;;;;;;;;;;;;;18.09;40.56;100830.44;5014109;28;20046;-78
2021/12/24 13:27:44;;;;;;;10.02;8.30;;;;;;;18.10;40.45;100832.16;5012963;28;19921;-76